createdAt,value
2018-09-18T00:01:09.658Z,17.10
2018-09-18T00:03:39.981Z,17.10
2018-09-18T00:06:09.990Z,17.10
2018-09-18T00:08:40.472Z,17.00
2018-09-18T00:11:10.482Z,17.00
2018-09-18T00:13:40.514Z,17.00
2018-09-18T00:16:10.631Z,17.00
2018-09-18T00:18:40.617Z,17.00
2018-09-18T00:21:10.637Z,16.90
2018-09-18T00:23:40.770Z,16.90
2018-09-18T00:26:10.946Z,16.90
2018-09-18T00:28:40.985Z,16.90
2018-09-18T00:31:11.095Z,16.90
2018-09-18T00:33:41.143Z,16.80
2018-09-18T00:36:11.286Z,16.90
2018-09-18T00:38:41.625Z,16.80
2018-09-18T00:41:11.638Z,16.80
2018-09-18T00:43:43.342Z,16.80
2018-09-18T00:46:13.521Z,16.80
2018-09-18T00:48:43.775Z,16.70
2018-09-18T00:51:13.949Z,16.70
2018-09-18T00:53:45.181Z,16.70
2018-09-18T00:56:15.332Z,16.70
2018-09-18T00:58:45.406Z,16.70
2018-09-18T01:01:16.720Z,16.70
2018-09-18T01:03:46.526Z,16.70
2018-09-18T01:06:16.496Z,16.70
2018-09-18T01:08:46.617Z,16.60
2018-09-18T01:11:16.590Z,16.60
2018-09-18T01:13:46.993Z,16.60
2018-09-18T01:16:16.934Z,16.60
2018-09-18T01:18:46.998Z,16.50
2018-09-18T01:21:17.009Z,16.50
2018-09-18T01:23:47.377Z,16.50
2018-09-18T01:26:17.576Z,16.50
2018-09-18T01:28:47.765Z,16.50
2018-09-18T01:31:18.038Z,16.50
2018-09-18T01:33:47.997Z,16.40
2018-09-18T01:36:18.045Z,16.40
2018-09-18T01:38:48.178Z,16.40
2018-09-18T01:41:17.974Z,16.40
2018-09-18T01:43:48.098Z,16.30
2018-09-18T01:46:18.142Z,16.30
2018-09-18T01:48:48.105Z,16.30
2018-09-18T01:51:18.222Z,16.30
2018-09-18T01:53:48.397Z,16.30
2018-09-18T01:56:18.378Z,16.30
2018-09-18T01:58:48.413Z,16.20
2018-09-18T02:01:18.307Z,16.20
2018-09-18T02:03:48.502Z,16.20
2018-09-18T02:06:18.460Z,16.20
2018-09-18T02:08:48.418Z,16.20
2018-09-18T02:11:18.274Z,16.20
2018-09-18T02:13:48.190Z,16.10
2018-09-18T02:16:18.218Z,16.10
2018-09-18T02:18:48.353Z,16.10
2018-09-18T02:21:18.385Z,16.10
2018-09-18T02:23:48.500Z,16.00
2018-09-18T02:26:18.648Z,16.00
2018-09-18T02:28:48.841Z,16.00
2018-09-18T02:31:18.818Z,16.00
2018-09-18T02:33:48.873Z,16.00
2018-09-18T02:36:18.850Z,15.90
2018-09-18T02:38:49.065Z,15.90
2018-09-18T02:41:19.102Z,15.90
2018-09-18T02:43:49.167Z,15.90
2018-09-18T02:46:19.252Z,15.90
2018-09-18T02:48:49.356Z,15.90
2018-09-18T02:51:19.442Z,15.80
2018-09-18T02:53:50.265Z,15.80
2018-09-18T02:56:20.580Z,15.80
2018-09-18T02:58:50.777Z,15.80
2018-09-18T03:01:20.843Z,15.70
2018-09-18T03:03:50.906Z,15.80
2018-09-18T03:06:21.112Z,15.70
2018-09-18T03:08:51.287Z,15.70
2018-09-18T03:11:21.296Z,15.70
2018-09-18T03:13:51.340Z,15.70
2018-09-18T03:16:21.660Z,15.60
2018-09-18T03:18:51.774Z,15.60
2018-09-18T03:21:22.047Z,15.60
2018-09-18T03:23:52.010Z,15.60
2018-09-18T03:26:21.980Z,15.60
2018-09-18T03:28:52.121Z,15.60
2018-09-18T03:31:22.141Z,15.50
2018-09-18T03:33:52.247Z,15.50
2018-09-18T03:36:22.521Z,15.50
2018-09-18T03:38:52.815Z,15.50
2018-09-18T03:41:22.990Z,15.50
2018-09-18T03:43:53.036Z,15.50
2018-09-18T03:46:23.013Z,15.50
2018-09-18T03:48:52.895Z,15.40
2018-09-18T03:51:23.137Z,15.40
2018-09-18T03:53:53.243Z,15.40
2018-09-18T03:56:23.233Z,15.40
2018-09-18T03:58:53.384Z,15.40
2018-09-18T04:01:23.674Z,15.40
2018-09-18T04:03:53.597Z,15.30
2018-09-18T04:06:23.585Z,15.30
2018-09-18T04:08:53.747Z,15.30
2018-09-18T04:11:23.945Z,15.30
2018-09-18T04:13:54.073Z,15.30
2018-09-18T04:16:24.046Z,15.20
2018-09-18T04:18:54.222Z,15.20
2018-09-18T04:21:29.331Z,15.20
2018-09-18T04:23:59.432Z,15.20
2018-09-18T04:26:29.718Z,15.20
2018-09-18T04:28:59.687Z,15.10
2018-09-18T04:31:29.725Z,15.10
2018-09-18T04:33:59.841Z,15.10
2018-09-18T04:36:29.911Z,15.10
2018-09-18T04:39:00.192Z,15.10
2018-09-18T04:41:30.459Z,15.10
2018-09-18T04:44:00.545Z,15.10
2018-09-18T04:46:30.572Z,15.10
2018-09-18T04:49:00.567Z,15.00
2018-09-18T04:51:30.868Z,15.00
2018-09-18T04:54:00.961Z,15.00
2018-09-18T04:56:31.254Z,15.00
2018-09-18T04:59:01.542Z,15.00
2018-09-18T05:01:31.655Z,15.00
2018-09-18T05:04:01.960Z,14.90
2018-09-18T05:06:32.105Z,14.90
2018-09-18T05:09:02.123Z,14.90
2018-09-18T05:11:32.181Z,14.90
2018-09-18T05:14:02.407Z,14.90
2018-09-18T05:16:32.725Z,14.70
2018-09-18T05:19:02.866Z,14.70
2018-09-18T05:21:32.861Z,14.70
2018-09-18T05:24:03.093Z,14.80
2018-09-18T05:26:33.129Z,14.80
2018-09-18T05:29:03.237Z,14.80
2018-09-18T05:31:33.163Z,14.80
2018-09-18T05:34:03.296Z,14.80
2018-09-18T05:36:33.101Z,14.80
2018-09-18T05:39:03.227Z,14.80
2018-09-18T05:41:33.409Z,14.70
2018-09-18T05:44:03.239Z,14.80
2018-09-18T05:46:33.206Z,14.80
2018-09-18T05:49:03.205Z,14.80
2018-09-18T05:51:33.289Z,14.70
2018-09-18T05:54:03.385Z,14.70
2018-09-18T05:56:33.501Z,14.70
2018-09-18T05:59:03.654Z,14.70
2018-09-18T06:01:34.427Z,14.70
2018-09-18T06:04:17.287Z,14.70
2018-09-18T06:06:57.103Z,14.70
2018-09-18T06:09:27.978Z,14.70
2018-09-18T06:11:57.878Z,14.70
2018-09-18T06:14:27.862Z,14.70
2018-09-18T06:16:57.890Z,14.70
2018-09-18T06:19:27.869Z,14.70
2018-09-18T06:21:58.173Z,14.70
2018-09-18T06:24:29.663Z,14.70
2018-09-18T06:27:00.772Z,14.70
2018-09-18T06:29:30.955Z,14.70
2018-09-18T06:32:01.107Z,14.70
2018-09-18T06:34:31.321Z,14.70
2018-09-18T06:37:01.451Z,14.70
2018-09-18T06:39:31.373Z,14.70
2018-09-18T06:42:01.535Z,14.70
2018-09-18T06:44:31.715Z,14.70
2018-09-18T06:47:01.751Z,14.70
2018-09-18T06:49:31.892Z,14.80
2018-09-18T06:52:02.234Z,14.80
2018-09-18T06:54:32.356Z,14.80
2018-09-18T06:57:02.274Z,14.80
2018-09-18T06:59:32.362Z,14.80
2018-09-18T07:02:02.452Z,14.80
2018-09-18T07:04:32.628Z,14.80
2018-09-18T07:07:02.811Z,14.80
2018-09-18T07:09:32.898Z,14.80
2018-09-18T07:12:02.912Z,14.80
2018-09-18T07:14:32.988Z,14.80
2018-09-18T07:17:03.379Z,14.80
2018-09-18T07:19:33.603Z,14.90
2018-09-18T07:22:03.859Z,14.90
2018-09-18T07:24:34.062Z,14.90
2018-09-18T07:27:04.211Z,14.90
2018-09-18T07:29:34.207Z,14.90
2018-09-18T07:32:04.179Z,14.90
2018-09-18T07:34:35.212Z,14.90
2018-09-18T07:37:05.196Z,14.90
2018-09-18T07:39:35.699Z,14.90
2018-09-18T07:42:05.799Z,15.00
2018-09-18T07:44:35.937Z,15.00
2018-09-18T07:47:05.909Z,15.00
2018-09-18T07:49:36.019Z,15.00
2018-09-18T07:52:06.300Z,15.00
2018-09-18T07:54:36.342Z,15.00
2018-09-18T07:57:06.506Z,15.00
2018-09-18T07:59:36.667Z,15.10
2018-09-18T08:02:06.743Z,15.10
2018-09-18T08:04:36.872Z,15.10
2018-09-18T08:07:08.919Z,15.20
2018-09-18T08:09:38.987Z,15.20
2018-09-18T08:12:09.121Z,15.30
2018-09-18T08:14:39.405Z,15.30
2018-09-18T08:17:09.567Z,15.40
2018-09-18T08:19:39.779Z,15.40
2018-09-18T08:22:09.800Z,15.50
2018-09-18T08:24:40.056Z,15.50
2018-09-18T08:27:10.400Z,15.60
2018-09-18T08:29:40.728Z,15.60
2018-09-18T08:32:10.770Z,15.70
2018-09-18T08:34:40.916Z,15.80
2018-09-18T08:37:10.843Z,15.80
2018-09-18T08:39:41.344Z,15.90
2018-09-18T08:42:12.462Z,15.90
2018-09-18T08:44:42.784Z,16.00
2018-09-18T08:47:12.802Z,16.00
2018-09-18T08:49:42.855Z,16.10
2018-09-18T08:52:12.796Z,16.10
2018-09-18T08:54:43.123Z,16.10
2018-09-18T08:57:13.038Z,16.20
2018-09-18T08:59:43.185Z,16.30
2018-09-18T09:02:13.208Z,16.30
2018-09-18T09:04:43.265Z,16.40
2018-09-18T09:07:13.237Z,16.40
2018-09-18T09:09:43.400Z,16.50
2018-09-18T09:12:13.371Z,16.50
2018-09-18T09:14:43.556Z,16.50
2018-09-18T09:17:13.837Z,16.60
2018-09-18T09:19:43.745Z,16.70
2018-09-18T09:22:13.886Z,16.70
2018-09-18T09:24:44.022Z,16.80
2018-09-18T09:27:14.069Z,16.80
2018-09-18T09:29:44.353Z,16.80
2018-09-18T09:32:14.494Z,16.90
2018-09-18T09:34:47.551Z,17.00
2018-09-18T09:37:21.099Z,17.00
2018-09-18T09:39:51.157Z,17.00
2018-09-18T09:42:21.074Z,17.10
2018-09-18T09:44:51.262Z,17.20
2018-09-18T09:47:21.358Z,17.20
2018-09-18T09:49:51.839Z,17.20
2018-09-18T09:52:22.075Z,17.30
2018-09-18T09:54:52.250Z,17.40
2018-09-18T09:57:22.252Z,17.40
2018-09-18T09:59:52.535Z,17.40
2018-09-18T10:02:29.363Z,17.40
2018-09-18T10:04:59.698Z,17.50
2018-09-18T10:07:29.615Z,17.50
2018-09-18T10:09:59.901Z,17.60
2018-09-18T10:12:30.017Z,17.70
2018-09-18T10:15:00.205Z,17.80
2018-09-18T10:17:30.188Z,17.70
2018-09-18T10:20:00.304Z,17.80
2018-09-18T10:22:30.628Z,17.80
2018-09-18T10:25:00.517Z,17.90
2018-09-18T10:27:30.623Z,17.90
2018-09-18T10:30:00.986Z,18.00
2018-09-18T10:32:31.248Z,18.00
2018-09-18T10:35:01.318Z,18.10
2018-09-18T10:37:31.452Z,18.10
2018-09-18T10:40:01.603Z,18.10
2018-09-18T10:42:31.867Z,18.20
2018-09-18T10:45:01.834Z,18.30
2018-09-18T10:47:32.388Z,18.30
2018-09-18T10:50:02.394Z,18.40
2018-09-18T10:52:32.598Z,18.40
2018-09-18T10:55:02.782Z,18.40
2018-09-18T10:57:32.844Z,18.50
2018-09-18T11:00:03.038Z,18.60
2018-09-18T11:02:33.140Z,18.60
2018-09-18T11:05:03.286Z,18.70
2018-09-18T11:07:34.008Z,18.70
2018-09-18T11:10:04.297Z,18.70
2018-09-18T11:12:34.523Z,18.70
2018-09-18T11:15:04.810Z,18.80
2018-09-18T11:17:34.860Z,18.90
2018-09-18T11:20:04.846Z,18.90
2018-09-18T11:22:35.136Z,18.90
2018-09-18T11:25:05.235Z,19.00
2018-09-18T11:27:35.464Z,19.10
2018-09-18T11:30:05.754Z,19.10
2018-09-18T11:32:37.115Z,19.10
2018-09-18T11:35:07.656Z,19.10
2018-09-18T11:37:37.782Z,19.20
2018-09-18T11:40:08.098Z,19.20
2018-09-18T11:42:38.267Z,19.30
2018-09-18T11:45:08.610Z,19.30
2018-09-18T11:47:38.881Z,19.30
2018-09-18T11:50:09.025Z,19.40
2018-09-18T11:52:39.120Z,19.50
2018-09-18T11:55:10.745Z,19.50
2018-09-18T11:57:40.861Z,19.50
2018-09-18T12:00:11.107Z,19.50
2018-09-18T12:02:41.090Z,19.60
2018-09-18T12:05:11.554Z,19.70
2018-09-18T12:07:41.908Z,19.70
2018-09-18T12:10:11.988Z,19.80
2018-09-18T12:12:42.346Z,19.80
2018-09-18T12:15:12.477Z,19.80
2018-09-18T12:17:42.645Z,19.80
2018-09-18T12:20:13.000Z,19.90
2018-09-18T12:22:43.366Z,20.00
2018-09-18T12:25:13.642Z,20.00
2018-09-18T12:27:44.647Z,20.10
2018-09-18T12:30:14.956Z,20.00
2018-09-18T12:32:44.932Z,20.10
2018-09-18T12:35:14.978Z,20.20
2018-09-18T12:37:45.010Z,20.20
2018-09-18T12:40:15.252Z,20.40
2018-09-18T12:42:46.354Z,20.40
2018-09-18T12:45:16.298Z,20.40
2018-09-18T12:47:46.320Z,20.40
2018-09-18T12:50:29.599Z,20.40
2018-09-18T12:53:07.947Z,20.40
2018-09-18T12:55:49.334Z,20.50
2018-09-18T12:58:33.207Z,20.50
2018-09-18T13:01:07.122Z,20.50
2018-09-18T13:03:52.920Z,20.50
2018-09-18T13:07:48.681Z,20.60
2018-09-18T13:10:37.116Z,20.60
2018-09-18T13:13:26.310Z,20.70
2018-09-18T13:18:52.340Z,20.70
2018-09-18T13:21:25.114Z,20.80
2018-09-18T13:24:03.600Z,20.70
2018-09-18T13:26:37.937Z,20.80
2018-09-18T13:29:21.457Z,20.80
2018-09-18T13:32:06.114Z,20.80
2018-09-18T13:34:51.994Z,20.80
2018-09-18T13:37:24.704Z,20.80
2018-09-18T13:40:05.094Z,20.90
2018-09-18T13:43:04.868Z,20.90
2018-09-18T13:46:02.948Z,20.90
2018-09-18T13:48:57.446Z,21.00
2018-09-18T13:51:41.584Z,21.00
2018-09-18T13:54:22.682Z,20.90
2018-09-18T13:57:17.504Z,21.00
2018-09-18T14:00:07.815Z,21.00
2018-09-18T14:02:57.603Z,21.00
2018-09-18T14:05:27.913Z,21.00
2018-09-18T14:08:05.800Z,21.10
2018-09-18T14:10:59.084Z,21.10
2018-09-18T14:13:43.152Z,21.10
2018-09-18T14:16:25.515Z,21.10
2018-09-18T14:19:07.293Z,21.10
2018-09-18T14:21:51.405Z,21.20
2018-09-18T14:24:25.909Z,21.10
2018-09-18T14:27:19.013Z,21.20
2018-09-18T14:29:52.018Z,21.20
2018-09-18T14:32:28.919Z,21.20
2018-09-18T14:35:15.352Z,21.20
2018-09-18T14:37:55.338Z,21.20
2018-09-18T14:40:33.431Z,21.20
2018-09-18T14:46:07.534Z,21.30
2018-09-18T14:48:48.930Z,21.30
2018-09-18T14:51:47.878Z,21.30
2018-09-18T14:54:31.887Z,21.30
2018-09-18T14:59:54.282Z,21.30
2018-09-18T15:02:41.243Z,21.30
2018-09-18T15:05:14.358Z,21.30
2018-09-18T15:07:44.560Z,21.30
2018-09-18T15:10:14.872Z,21.30
2018-09-18T15:12:45.064Z,21.30
2018-09-18T15:15:15.268Z,21.30
2018-09-18T15:17:45.361Z,21.30
2018-09-18T15:20:15.519Z,21.80
2018-09-18T15:22:45.926Z,22.20
2018-09-18T15:25:16.150Z,22.30
2018-09-18T15:27:46.448Z,22.40
2018-09-18T15:30:16.331Z,22.40
2018-09-18T15:32:46.629Z,22.50
2018-09-18T15:35:16.647Z,22.50
2018-09-18T15:37:46.948Z,22.50
2018-09-18T15:40:17.094Z,22.50
2018-09-18T15:42:47.108Z,22.50
2018-09-18T15:45:17.323Z,22.60
2018-09-18T15:47:47.635Z,22.60
2018-09-18T15:50:24.235Z,22.60
2018-09-18T15:53:00.520Z,22.60
2018-09-18T15:55:31.072Z,22.60
2018-09-18T15:58:01.106Z,22.60
2018-09-18T16:00:31.394Z,22.60
2018-09-18T16:03:01.518Z,22.60
2018-09-18T16:05:31.582Z,22.60
2018-09-18T16:08:01.824Z,22.60
2018-09-18T16:10:31.936Z,22.60
2018-09-18T16:13:02.091Z,22.60
2018-09-18T16:18:02.353Z,22.60
2018-09-18T16:20:32.800Z,22.60
2018-09-18T16:23:02.842Z,22.60
2018-09-18T16:25:32.902Z,22.60
2018-09-18T16:28:08.831Z,22.60
2018-09-18T16:30:39.383Z,22.60
2018-09-18T16:33:09.562Z,22.60
2018-09-18T16:35:39.748Z,22.60
2018-09-18T16:38:09.905Z,22.60
2018-09-18T16:40:40.012Z,22.60
2018-09-18T16:43:10.371Z,22.60
2018-09-18T16:45:40.484Z,22.60
2018-09-18T16:48:10.851Z,22.50
2018-09-18T16:50:41.943Z,22.50
2018-09-18T16:53:14.164Z,22.50
2018-09-18T16:55:44.706Z,22.50
2018-09-18T16:58:14.955Z,22.50
2018-09-18T17:00:46.039Z,22.50
2018-09-18T17:03:16.168Z,22.40
2018-09-18T17:05:47.565Z,22.50
2018-09-18T17:08:17.806Z,22.40
2018-09-18T17:10:48.178Z,22.40
2018-09-18T17:13:18.612Z,22.40
2018-09-18T17:15:48.906Z,22.40
2018-09-18T17:18:19.178Z,22.40
2018-09-18T17:20:51.450Z,22.40
2018-09-18T17:23:24.271Z,22.40
2018-09-18T17:25:55.288Z,22.40
2018-09-18T17:28:27.420Z,22.30
2018-09-18T17:30:59.296Z,22.30
2018-09-18T17:33:31.725Z,22.30
2018-09-18T17:36:02.672Z,22.30
2018-09-18T17:38:33.654Z,22.30
2018-09-18T17:41:03.841Z,22.20
2018-09-18T17:43:36.548Z,22.30
2018-09-18T17:46:09.272Z,22.20
2018-09-18T17:48:40.878Z,22.20
2018-09-18T17:51:13.204Z,22.20
2018-09-18T17:53:46.682Z,22.10
2018-09-18T17:56:20.684Z,22.10
2018-09-18T17:58:56.164Z,22.10
2018-09-18T18:01:29.626Z,22.10
2018-09-18T18:04:01.907Z,22.10
2018-09-18T18:06:33.060Z,22.10
2018-09-18T18:09:07.263Z,22.10
2018-09-18T18:11:39.563Z,22.00
2018-09-18T18:14:13.712Z,22.00
2018-09-18T18:16:46.200Z,22.00
2018-09-18T18:19:23.514Z,22.00
2018-09-18T18:21:55.051Z,22.00
2018-09-18T18:24:27.295Z,22.00
2018-09-18T18:26:57.541Z,21.90
2018-09-18T18:29:29.245Z,21.90
2018-09-18T18:32:05.016Z,21.90
2018-09-18T18:34:37.286Z,21.90
2018-09-18T18:37:08.768Z,21.90
2018-09-18T18:39:39.893Z,21.90
2018-09-18T18:42:11.375Z,21.90
2018-09-18T18:44:43.482Z,21.80
2018-09-18T18:47:14.603Z,21.80
2018-09-18T18:49:45.650Z,21.80
2018-09-18T18:52:19.051Z,21.80
2018-09-18T18:54:53.661Z,21.80
2018-09-18T18:57:27.003Z,21.80
2018-09-18T19:00:01.253Z,21.70
2018-09-18T19:02:34.711Z,21.70
2018-09-18T19:05:11.218Z,21.70
2018-09-18T19:07:42.487Z,21.60
2018-09-18T19:10:14.872Z,21.60
2018-09-18T19:12:46.632Z,21.60
2018-09-18T19:15:17.576Z,21.60
2018-09-18T19:17:50.010Z,21.60
2018-09-18T19:20:21.254Z,21.50
2018-09-18T19:22:54.916Z,21.50
2018-09-18T19:25:28.558Z,21.50
2018-09-18T19:27:59.110Z,21.50
2018-09-18T19:30:32.826Z,21.50
2018-09-18T19:33:03.787Z,21.50
2018-09-18T19:35:33.892Z,21.50
2018-09-18T19:38:05.489Z,21.50
2018-09-18T19:40:35.715Z,21.40
2018-09-18T19:43:06.052Z,21.40
2018-09-18T19:45:36.796Z,21.40
2018-09-18T19:48:06.982Z,21.40
2018-09-18T19:50:37.632Z,21.40
2018-09-18T19:53:11.750Z,21.30
2018-09-18T19:55:41.972Z,21.30
2018-09-18T19:58:12.196Z,21.30
2018-09-18T20:00:42.470Z,21.30
2018-09-18T20:03:12.583Z,21.30
2018-09-18T20:05:42.946Z,21.30
2018-09-18T20:08:17.935Z,21.30
2018-09-18T20:10:48.265Z,21.20
2018-09-18T20:13:18.776Z,21.20
2018-09-18T20:15:48.898Z,21.20
2018-09-18T20:18:19.140Z,21.20
2018-09-18T20:20:49.370Z,21.20
2018-09-18T20:23:19.390Z,21.20
2018-09-18T20:25:49.593Z,21.10
2018-09-18T20:28:21.020Z,21.10
2018-09-18T20:30:52.057Z,21.10
2018-09-18T20:33:22.372Z,21.10
2018-09-18T20:35:53.017Z,21.10
2018-09-18T20:38:23.076Z,21.10
2018-09-18T20:40:53.176Z,21.00
2018-09-18T20:43:23.393Z,21.00
2018-09-18T20:45:53.458Z,21.00
2018-09-18T20:48:23.667Z,21.00
2018-09-18T20:50:55.201Z,21.00
2018-09-18T20:53:25.305Z,21.00
2018-09-18T20:55:55.633Z,21.00
2018-09-18T20:58:26.088Z,21.00
2018-09-18T21:00:56.190Z,20.90
2018-09-18T21:03:26.322Z,20.90
2018-09-18T21:05:56.611Z,20.90
2018-09-18T21:08:26.989Z,20.90
2018-09-18T21:10:57.331Z,20.90
2018-09-18T21:13:27.569Z,20.80
2018-09-18T21:15:57.774Z,20.80
2018-09-18T21:18:27.876Z,20.80
2018-09-18T21:20:58.187Z,20.80
2018-09-18T21:23:28.286Z,20.80
2018-09-18T21:26:02.168Z,20.80
2018-09-18T21:28:32.256Z,20.70
2018-09-18T21:31:02.540Z,20.70
2018-09-18T21:33:32.691Z,20.80
2018-09-18T21:36:02.961Z,20.70
2018-09-18T21:38:33.362Z,20.70
2018-09-18T21:41:03.640Z,20.70
2018-09-18T21:43:33.886Z,20.70
2018-09-18T21:46:03.906Z,20.70
2018-09-18T21:48:34.034Z,20.60
2018-09-18T21:51:04.327Z,20.60
2018-09-18T21:53:34.572Z,20.60
2018-09-18T21:56:05.288Z,20.60
2018-09-18T21:58:35.361Z,20.60
2018-09-18T22:01:06.510Z,20.50
2018-09-18T22:03:36.651Z,20.60
2018-09-18T22:06:06.728Z,20.50
2018-09-18T22:08:37.488Z,20.50
2018-09-18T22:11:07.577Z,20.50
2018-09-18T22:13:37.717Z,20.50
2018-09-18T22:16:07.790Z,20.50
2018-09-18T22:18:43.735Z,20.50
2018-09-18T22:21:19.599Z,20.40
2018-09-18T22:23:50.175Z,20.40
2018-09-18T22:26:20.382Z,20.40
2018-09-18T22:28:50.479Z,20.40
2018-09-18T22:31:20.742Z,20.40
2018-09-18T22:33:50.872Z,20.40
2018-09-18T22:36:21.235Z,20.40
2018-09-18T22:38:51.984Z,20.30
2018-09-18T22:41:22.170Z,20.30
2018-09-18T22:43:52.305Z,20.30
2018-09-18T22:46:22.229Z,20.30
2018-09-18T22:48:52.057Z,20.30
2018-09-18T22:51:22.271Z,20.30
2018-09-18T22:53:53.583Z,20.20
2018-09-18T22:56:23.512Z,20.20
2018-09-18T22:58:53.676Z,20.20
2018-09-18T23:01:23.764Z,20.20
2018-09-18T23:03:54.439Z,20.20
2018-09-18T23:06:24.470Z,20.20
2018-09-18T23:08:54.514Z,20.10
2018-09-18T23:11:24.544Z,20.10
2018-09-18T23:13:54.629Z,20.10
2018-09-18T23:16:26.453Z,20.10
2018-09-18T23:18:57.373Z,20.10
2018-09-18T23:21:27.621Z,20.00
2018-09-18T23:23:57.703Z,20.10
2018-09-18T23:26:27.841Z,20.00
2018-09-18T23:28:58.130Z,20.00
2018-09-18T23:31:28.038Z,20.00
2018-09-18T23:33:58.151Z,20.00
2018-09-18T23:36:28.309Z,20.00
2018-09-18T23:38:58.998Z,20.00
2018-09-18T23:41:29.300Z,20.00
2018-09-18T23:43:59.893Z,19.90
2018-09-18T23:46:30.038Z,19.90
2018-09-18T23:49:00.767Z,19.90
2018-09-18T23:51:30.877Z,19.90
2018-09-18T23:54:02.779Z,19.90
2018-09-18T23:56:32.845Z,19.90
2018-09-18T23:59:03.077Z,19.80
